Time;durP1;ratioP1;P1;durP2;ratioP2;P2;SDS_P1;SDS_P2;PMS_P1;PMS_P2;Temp;Humidity;BMP_temperature;BMP_pressure;BME280_temperature;BME280_humidity;BME280_pressure;Samples;Min_cycle;Max_cycle;Signal;HPM_P1;HPM_P2
2021/01/26 00:03:49;;;;;;;29.05;17.75;;;;;;;;;;10214400;28;22006;-60
2021/01/26 00:08:46;;;;;;;25.35;16.15;;;;;;;;;;10226918;28;20074;-62
2021/01/26 00:13:43;;;;;;;11.25;6.75;;;;;;;;;;10220054;28;20076;-61
2021/01/26 00:18:44;;;;;;;17.85;12.27;;;;;;;;;;10217409;28;20507;-63
2021/01/26 00:23:42;;;;;;;33.45;20.25;;;;;;;;;;10221309;28;20081;-61
2021/01/26 00:28:39;;;;;;;39.47;22.98;;;;;;;;;;10215930;28;20538;-62
2021/01/26 00:33:37;;;;;;;7.53;5.22;;;;;;;;;;10216168;28;20073;-62
2021/01/26 00:38:35;;;;;;;7.18;4.85;;;;;;;;;;10220310;28;20072;-63
2021/01/26 00:43:33;;;;;;;17.83;12.20;;;;;;;;;;10218084;28;20065;-62
2021/01/26 00:48:30;;;;;;;44.45;30.55;;;;;;;;;;10218091;28;20080;-61
2021/01/26 00:53:28;;;;;;;5.43;4.38;;;;;;;;;;10217549;28;20462;-59
2021/01/26 00:58:33;;;;;;;26.35;16.05;;;;;;;;;;10217021;28;20500;-60
2021/01/26 01:03:31;;;;;;;35.03;23.13;;;;;;;;;;10217058;28;20494;-62
2021/01/26 01:08:29;;;;;;;53.65;33.90;;;;;;;;;;10217277;28;20074;-61
2021/01/26 01:13:26;;;;;;;21.75;14.80;;;;;;;;;;10218757;28;20081;-61
2021/01/26 01:18:26;;;;;;;168.57;96.85;;;;;;;;;;10213043;28;20077;-61
2021/01/26 01:23:23;;;;;;;59.28;35.65;;;;;;;;;;10214468;28;20490;-62
2021/01/26 01:28:21;;;;;;;63.88;39.35;;;;;;;;;;10217781;28;20073;-61
2021/01/26 01:33:18;;;;;;;27.70;18.17;;;;;;;;;;10216196;28;20447;-61
2021/01/26 01:38:17;;;;;;;19.05;12.82;;;;;;;;;;10216255;28;20065;-62
2021/01/26 01:43:15;;;;;;;14.88;10.30;;;;;;;;;;10217147;28;20073;-62
2021/01/26 01:48:13;;;;;;;22.25;14.30;;;;;;;;;;10215030;28;20065;-62
2021/01/26 01:53:12;;;;;;;18.48;11.25;;;;;;;;;;10216233;28;20515;-61
2021/01/26 01:58:15;;;;;;;20.23;12.43;;;;;;;;;;10211832;28;20048;-61
2021/01/26 02:03:17;;;;;;;14.43;9.52;;;;;;;;;;10210786;28;20085;-62
2021/01/26 02:08:20;;;;;;;7.55;6.18;;;;;;;;;;10213167;28;20057;-61
2021/01/26 02:13:18;;;;;;;57.38;31.90;;;;;;;;;;10216117;28;20072;-63
2021/01/26 02:18:30;;;;;;;45.85;29.92;;;;;;;;;;10213096;28;20502;-61
2021/01/26 02:23:56;;;;;;;24.58;15.77;;;;;;;;;;10213878;28;20473;-62
2021/01/26 02:28:57;;;;;;;23.08;16.45;;;;;;;;;;10213239;28;20061;-62
2021/01/26 02:34:21;;;;;;;23.35;14.85;;;;;;;;;;10211608;28;20077;-62
2021/01/26 02:39:37;;;;;;;18.88;12.30;;;;;;;;;;10213012;28;20511;-62
2021/01/26 02:44:35;;;;;;;;;;;;;;;;;;10211924;28;20498;-62
2021/01/26 02:49:38;;;;;;;28.95;16.77;;;;;;;;;;10215332;28;19968;-62
2021/01/26 02:54:40;;;;;;;20.83;14.13;;;;;;;;;;10210431;28;20526;-62
2021/01/26 02:59:41;;;;;;;14.00;10.93;;;;;;;;;;10210934;28;20069;-62
2021/01/26 03:04:44;;;;;;;15.30;11.60;;;;;;;;;;10210826;28;20068;-61
2021/01/26 03:09:44;;;;;;;20.80;12.52;;;;;;;;;;10209509;28;20081;-62
2021/01/26 03:14:44;;;;;;;27.75;18.23;;;;;;;;;;10214860;28;20066;-62
2021/01/26 03:19:45;;;;;;;22.05;14.88;;;;;;;;;;10210460;28;20085;-62
2021/01/26 03:24:44;;;;;;;14.15;10.65;;;;;;;;;;10210526;28;20069;-61
2021/01/26 03:29:42;;;;;;;22.40;14.38;;;;;;;;;;10209081;28;20065;-61
2021/01/26 03:34:40;;;;;;;38.17;20.98;;;;;;;;;;10210167;28;20068;-62
2021/01/26 03:39:38;;;;;;;15.13;9.93;;;;;;;;;;10213316;28;20073;-62
2021/01/26 03:44:36;;;;;;;20.17;12.43;;;;;;;;;;10212819;28;20080;-62
2021/01/26 03:49:39;;;;;;;39.95;20.13;;;;;;;;;;10211338;28;20463;-62
2021/01/26 03:54:38;;;;;;;51.00;24.40;;;;;;;;;;10212574;28;20075;-62
2021/01/26 03:59:43;;;;;;;36.35;20.55;;;;;;;;;;10212949;28;20066;-62
2021/01/26 04:04:43;;;;;;;33.72;18.90;;;;;;;;;;10210515;28;20073;-62
2021/01/26 04:09:46;;;;;;;36.45;20.40;;;;;;;;;;10213280;28;20085;-62
2021/01/26 04:14:48;;;;;;;52.60;26.77;;;;;;;;;;10211647;28;20076;-61
2021/01/26 04:19:47;;;;;;;24.58;16.40;;;;;;;;;;10209188;28;20065;-60
2021/01/26 04:24:45;;;;;;;44.15;26.92;;;;;;;;;;10213285;28;20503;-60
2021/01/26 04:29:42;;;;;;;22.60;16.15;;;;;;;;;;10211663;28;20069;-61
2021/01/26 04:34:41;;;;;;;25.70;15.90;;;;;;;;;;10212005;28;20065;-61
2021/01/26 04:39:38;;;;;;;18.85;13.05;;;;;;;;;;10211466;28;20072;-62
2021/01/26 04:44:50;;;;;;;25.23;17.92;;;;;;;;;;10211230;28;20073;-61
2021/01/26 04:49:55;;;;;;;14.23;11.45;;;;;;;;;;10208579;28;20092;-61
2021/01/26 04:54:57;;;;;;;36.20;18.43;;;;;;;;;;10216055;28;20497;-61
2021/01/26 05:00:02;;;;;;;88.90;35.03;;;;;;;;;;10216152;28;20078;-62
2021/01/26 05:05:02;;;;;;;94.25;40.72;;;;;;;;;;10218844;28;20476;-62
2021/01/26 05:10:02;;;;;;;31.95;20.63;;;;;;;;;;10218304;28;20073;-61
2021/01/26 05:15:01;;;;;;;55.38;28.60;;;;;;;;;;10218436;28;20455;-61
2021/01/26 05:20:00;;;;;;;25.02;17.00;;;;;;;;;;10216529;28;20092;-61
2021/01/26 05:25:02;;;;;;;19.35;12.13;;;;;;;;;;10217699;28;20585;-61
2021/01/26 05:30:00;;;;;;;19.98;13.40;;;;;;;;;;10214491;28;20065;-61
2021/01/26 05:34:58;;;;;;;26.85;15.30;;;;;;;;;;10218372;28;20070;-62
2021/01/26 05:39:58;;;;;;;25.23;15.52;;;;;;;;;;10213628;28;20069;-62
2021/01/26 05:44:58;;;;;;;40.65;19.25;;;;;;;;;;10213425;28;20073;-60
2021/01/26 05:49:56;;;;;;;20.50;14.70;;;;;;;;;;10208469;28;20534;-62
2021/01/26 05:54:54;;;;;;;15.45;9.98;;;;;;;;;;10214221;28;20511;-61
2021/01/26 05:59:51;;;;;;;11.75;7.70;;;;;;;;;;10212194;28;20072;-61
2021/01/26 06:04:49;;;;;;;11.45;7.38;;;;;;;;;;10215069;28;20482;-64
2021/01/26 06:09:46;;;;;;;9.73;7.00;;;;;;;;;;10216726;28;20077;-64
2021/01/26 06:14:45;;;;;;;8.15;7.00;;;;;;;;;;10215150;28;20085;-64
2021/01/26 06:19:42;;;;;;;11.20;7.90;;;;;;;;;;10216615;28;20481;-64
2021/01/26 06:24:40;;;;;;;11.25;8.40;;;;;;;;;;10214874;28;20491;-64
2021/01/26 06:29:38;;;;;;;17.70;12.40;;;;;;;;;;10213684;28;20065;-64
2021/01/26 06:34:46;;;;;;;47.35;29.35;;;;;;;;;;10215402;28;20462;-64
2021/01/26 06:39:55;;;;;;;85.75;37.55;;;;;;;;;;10212112;28;20065;-65
2021/01/26 06:45:13;;;;;;;58.97;35.35;;;;;;;;;;10213481;28;20084;-64
2021/01/26 06:50:15;;;;;;;128.30;79.07;;;;;;;;;;10210639;28;20502;-63
2021/01/26 06:55:23;;;;;;;86.30;45.78;;;;;;;;;;10215025;28;20095;-65
2021/01/26 07:00:24;;;;;;;127.45;76.80;;;;;;;;;;10214977;28;20070;-65
2021/01/26 07:05:29;;;;;;;100.53;53.17;;;;;;;;;;10213452;28;20073;-64
2021/01/26 07:10:26;;;;;;;;;;;;;;;;;;10211230;28;20084;-65
2021/01/26 07:15:31;;;;;;;66.38;36.83;;;;;;;;;;10214110;28;19959;-65
2021/01/26 07:20:33;;;;;;;84.03;51.25;;;;;;;;;;10209950;28;20073;-64
2021/01/26 07:25:36;;;;;;;86.10;53.40;;;;;;;;;;10209755;28;20075;-64
2021/01/26 07:30:34;;;;;;;145.43;73.57;;;;;;;;;;10210000;28;20081;-63
2021/01/26 07:35:34;;;;;;;41.55;27.27;;;;;;;;;;10214520;28;20499;-63
2021/01/26 07:52:17;;;;;;;79.70;46.80;;;;;;;;;;10209786;28;20104;-64
2021/01/26 07:57:16;;;;;;;72.20;45.85;;;;;;;;;;10210032;28;20065;-65
2021/01/26 08:02:16;;;;;;;77.47;45.13;;;;;;;;;;10212822;28;20068;-64
2021/01/26 08:07:26;;;;;;;52.70;34.75;;;;;;;;;;10210952;28;20073;-64
2021/01/26 08:12:38;;;;;;;42.17;28.48;;;;;;;;;;10209195;28;20080;-64
2021/01/26 08:17:36;;;;;;;60.00;51.33;;;;;;;;;;10211440;28;20065;-64
2021/01/26 08:22:36;;;;;;;72.43;47.35;;;;;;;;;;10212239;28;20088;-65
2021/01/26 08:27:58;;;;;;;54.63;38.42;;;;;;;;;;10218360;28;20080;-64
2021/01/26 08:33:13;;;;;;;63.38;41.13;;;;;;;;;;10218042;28;20073;-64
2021/01/26 08:38:31;;;;;;;110.63;65.20;;;;;;;;;;10216623;28;20074;-64
2021/01/26 08:43:46;;;;;;;54.95;38.38;;;;;;;;;;10216243;28;20080;-64
2021/01/26 08:48:55;;;;;;;59.00;38.83;;;;;;;;;;10219988;28;20073;-64
2021/01/26 08:53:53;;;;;;;26.48;20.40;;;;;;;;;;10216438;28;20077;-63
2021/01/26 08:58:53;;;;;;;26.08;18.15;;;;;;;;;;10219290;28;20453;-64
2021/01/26 09:03:50;;;;;;;40.42;25.33;;;;;;;;;;10215543;28;20072;-64
2021/01/26 09:08:49;;;;;;;41.67;25.80;;;;;;;;;;10219160;28;20081;-64
2021/01/26 09:13:47;;;;;;;42.22;26.73;;;;;;;;;;10216576;28;20470;-65
2021/01/26 09:18:51;;;;;;;35.00;22.10;;;;;;;;;;10217980;28;20124;-64
2021/01/26 09:23:52;;;;;;;74.82;38.58;;;;;;;;;;10216783;28;20072;-64
2021/01/26 09:28:50;;;;;;;31.08;22.10;;;;;;;;;;10217723;28;20065;-64
2021/01/26 09:33:49;;;;;;;41.10;27.73;;;;;;;;;;10216597;28;20453;-64
2021/01/26 09:38:48;;;;;;;29.85;21.80;;;;;;;;;;10217431;28;20062;-64
2021/01/26 09:43:46;;;;;;;36.00;23.40;;;;;;;;;;10217053;28;20077;-63
2021/01/26 09:48:44;;;;;;;48.45;32.15;;;;;;;;;;10216682;28;20066;-63
2021/01/26 09:53:44;;;;;;;45.45;25.88;;;;;;;;;;10217119;28;20081;-64
2021/01/26 09:58:44;;;;;;;59.35;33.75;;;;;;;;;;10215986;28;20117;-65
2021/01/26 10:03:41;;;;;;;61.28;31.05;;;;;;;;;;10216775;28;20065;-65
2021/01/26 10:08:39;;;;;;;35.53;21.33;;;;;;;;;;10214987;28;20060;-64
2021/01/26 10:13:38;;;;;;;60.47;35.92;;;;;;;;;;10212222;28;20069;-64
2021/01/26 10:18:41;;;;;;;41.35;25.65;;;;;;;;;;10211725;28;20117;-65
2021/01/26 10:23:40;;;;;;;51.47;34.28;;;;;;;;;;10212018;28;20065;-65
2021/01/26 10:28:52;;;;;;;34.55;24.25;;;;;;;;;;10212196;28;20092;-63
2021/01/26 10:33:50;;;;;;;31.00;21.10;;;;;;;;;;10213475;28;20490;-64
2021/01/26 10:38:49;;;;;;;29.27;20.73;;;;;;;;;;10215124;28;20081;-64
2021/01/26 10:43:46;;;;;;;38.05;23.98;;;;;;;;;;10214409;28;20169;-63
2021/01/26 10:48:47;;;;;;;32.55;20.70;;;;;;;;;;10214494;28;20080;-64
2021/01/26 10:53:46;;;;;;;29.17;21.85;;;;;;;;;;10211661;28;20530;-64
2021/01/26 10:58:43;;;;;;;29.48;22.75;;;;;;;;;;10210634;28;20068;-64
2021/01/26 11:03:41;;;;;;;48.63;31.23;;;;;;;;;;10214767;28;20069;-65
2021/01/26 11:08:38;;;;;;;34.83;26.88;;;;;;;;;;10213089;28;20064;-65
2021/01/26 11:13:37;;;;;;;51.42;37.88;;;;;;;;;;10213498;28;20077;-65
2021/01/26 11:18:34;;;;;;;61.38;37.15;;;;;;;;;;10213496;28;20076;-65
2021/01/26 11:23:32;;;;;;;28.80;20.38;;;;;;;;;;10212779;28;20471;-63
2021/01/26 11:28:29;;;;;;;35.15;22.90;;;;;;;;;;10214001;28;20062;-63
2021/01/26 11:33:28;;;;;;;29.17;21.20;;;;;;;;;;10209604;28;20077;-63
2021/01/26 11:38:26;;;;;;;29.98;23.23;;;;;;;;;;10214131;28;20069;-64
2021/01/26 11:43:24;;;;;;;39.22;26.50;;;;;;;;;;10212305;28;20471;-63
2021/01/26 11:48:21;;;;;;;96.25;51.25;;;;;;;;;;10213234;28;20069;-63
2021/01/26 11:53:21;;;;;;;34.67;24.88;;;;;;;;;;10212882;28;20088;-64
2021/01/26 11:58:19;;;;;;;39.53;30.08;;;;;;;;;;10212923;28;20507;-64
2021/01/26 12:03:16;;;;;;;95.53;62.28;;;;;;;;;;10220743;28;20065;-64
2021/01/26 12:08:14;;;;;;;48.55;29.73;;;;;;;;;;10219090;28;20491;-64
2021/01/26 12:13:13;;;;;;;73.05;43.67;;;;;;;;;;10217140;28;20080;-64
2021/01/26 12:18:10;;;;;;;42.25;27.25;;;;;;;;;;10220927;28;20092;-63
2021/01/26 12:23:08;;;;;;;33.58;24.08;;;;;;;;;;10219690;28;20076;-63
2021/01/26 12:28:06;;;;;;;42.83;26.63;;;;;;;;;;10219258;28;20061;-64
2021/01/26 12:33:04;;;;;;;84.00;47.88;;;;;;;;;;10219577;28;20077;-64
2021/01/26 12:38:02;;;;;;;63.75;39.13;;;;;;;;;;10218731;28;20069;-64
2021/01/26 12:43:00;;;;;;;61.13;33.05;;;;;;;;;;10219184;28;20067;-63
2021/01/26 12:47:58;;;;;;;43.70;27.10;;;;;;;;;;10218532;28;20092;-65
2021/01/26 12:52:56;;;;;;;49.75;31.13;;;;;;;;;;10215109;28;20076;-65
2021/01/26 12:57:54;;;;;;;87.70;49.13;;;;;;;;;;10218765;28;20080;-64
2021/01/26 13:02:53;;;;;;;56.65;34.05;;;;;;;;;;10218425;28;20096;-65
2021/01/26 13:07:50;;;;;;;213.20;104.43;;;;;;;;;;10218758;28;20077;-65
2021/01/26 13:12:48;;;;;;;62.20;41.88;;;;;;;;;;10217315;28;20080;-64
2021/01/26 13:17:46;;;;;;;70.30;44.13;;;;;;;;;;10216689;28;20562;-64
2021/01/26 13:22:44;;;;;;;92.57;59.75;;;;;;;;;;10219046;28;20078;-64
2021/01/26 13:27:41;;;;;;;193.32;99.70;;;;;;;;;;10213941;28;20076;-64
2021/01/26 13:32:39;;;;;;;75.50;50.03;;;;;;;;;;10213839;28;20163;-63
2021/01/26 13:37:37;;;;;;;88.50;51.85;;;;;;;;;;10218168;28;20081;-64
2021/01/26 13:42:35;;;;;;;107.32;67.85;;;;;;;;;;10216871;28;20068;-64
2021/01/26 13:47:32;;;;;;;131.32;74.72;;;;;;;;;;10216229;28;20748;-64
2021/01/26 13:52:31;;;;;;;72.32;45.13;;;;;;;;;;10216640;28;20089;-64
2021/01/26 13:57:28;;;;;;;95.22;60.22;;;;;;;;;;10214984;28;20070;-63
2021/01/26 14:02:26;;;;;;;263.40;137.35;;;;;;;;;;10217529;28;20602;-64
2021/01/26 14:07:23;;;;;;;119.15;67.93;;;;;;;;;;10214836;28;20069;-64
2021/01/26 14:12:21;;;;;;;117.97;68.18;;;;;;;;;;10215907;28;20077;-64
2021/01/26 14:17:19;;;;;;;154.48;89.35;;;;;;;;;;10214697;28;20076;-65
2021/01/26 14:22:16;;;;;;;117.28;61.53;;;;;;;;;;10214371;28;20515;-65
2021/01/26 14:27:14;;;;;;;177.93;91.70;;;;;;;;;;10215376;28;20080;-65
2021/01/26 14:32:12;;;;;;;94.53;51.10;;;;;;;;;;10213698;28;20076;-65
2021/01/26 14:37:09;;;;;;;40.75;28.83;;;;;;;;;;10211146;28;20073;-64
2021/01/26 14:42:08;;;;;;;152.73;76.90;;;;;;;;;;10215152;28;20153;-64
2021/01/26 14:47:05;;;;;;;78.15;48.80;;;;;;;;;;10214048;28;20080;-64
2021/01/26 14:52:03;;;;;;;226.32;144.93;;;;;;;;;;10214752;28;20077;-64
2021/01/26 14:57:01;;;;;;;129.20;68.97;;;;;;;;;;10214016;28;20057;-64
2021/01/26 15:01:58;;;;;;;93.38;51.22;;;;;;;;;;10212986;28;20073;-65
2021/01/26 15:06:56;;;;;;;134.27;71.40;;;;;;;;;;10214537;28;20124;-65
2021/01/26 15:11:54;;;;;;;54.42;36.28;;;;;;;;;;10209914;28;20061;-64
2021/01/26 15:16:51;;;;;;;87.40;55.83;;;;;;;;;;10209673;28;20073;-64
2021/01/26 15:21:49;;;;;;;113.40;61.25;;;;;;;;;;10213715;28;20492;-64
2021/01/26 15:26:47;;;;;;;184.32;102.47;;;;;;;;;;10212945;28;20065;-65
2021/01/26 15:31:45;;;;;;;210.32;109.00;;;;;;;;;;10212588;28;20072;-64
2021/01/26 15:36:43;;;;;;;207.30;133.07;;;;;;;;;;10212691;28;20484;-65
2021/01/26 15:41:40;;;;;;;114.55;63.75;;;;;;;;;;10211558;28;20064;-64
2021/01/26 15:46:37;;;;;;;99.38;56.05;;;;;;;;;;10209859;28;20065;-64
2021/01/26 15:51:36;;;;;;;68.65;42.42;;;;;;;;;;10206103;28;20077;-63
2021/01/26 15:56:33;;;;;;;121.57;67.75;;;;;;;;;;10207421;28;20065;-64
2021/01/26 16:01:30;;;;;;;81.85;49.97;;;;;;;;;;10203346;28;20054;-63
2021/01/26 16:06:28;;;;;;;124.22;71.93;;;;;;;;;;10202320;28;20061;-62
2021/01/26 16:11:30;;;;;;;90.13;56.30;;;;;;;;;;10195490;28;20065;-64
2021/01/26 16:16:27;;;;;;;65.57;43.17;;;;;;;;;;10206517;28;20076;-64
2021/01/26 16:21:25;;;;;;;68.25;43.38;;;;;;;;;;10204526;28;20080;-64
2021/01/26 16:26:22;;;;;;;98.63;63.67;;;;;;;;;;10207247;28;20073;-64
2021/01/26 16:31:21;;;;;;;70.75;44.03;;;;;;;;;;10198827;28;20066;-65
2021/01/26 16:36:19;;;;;;;72.60;44.33;;;;;;;;;;10209031;28;20490;-64
2021/01/26 16:41:18;;;;;;;125.10;57.70;;;;;;;;;;10208496;28;20080;-63
2021/01/26 16:46:15;;;;;;;107.65;69.53;;;;;;;;;;10213639;28;20458;-64
2021/01/26 16:51:13;;;;;;;108.32;67.15;;;;;;;;;;10218507;28;20104;-64
2021/01/26 16:56:11;;;;;;;87.03;57.33;;;;;;;;;;10218744;28;20084;-63
2021/01/26 17:01:08;;;;;;;82.60;53.92;;;;;;;;;;10202232;28;20069;-64
2021/01/26 17:06:05;;;;;;;88.28;59.15;;;;;;;;;;10210327;28;20073;-64
2021/01/26 17:11:04;;;;;;;98.82;53.53;;;;;;;;;;10213561;28;20545;-64
2021/01/26 17:16:01;;;;;;;130.55;83.97;;;;;;;;;;10194063;28;20149;-64
2021/01/26 17:20:59;;;;;;;116.05;73.88;;;;;;;;;;10211180;28;20096;-64
2021/01/26 17:25:56;;;;;;;71.43;43.22;;;;;;;;;;10204857;28;20070;-64
2021/01/26 17:30:55;;;;;;;84.20;52.28;;;;;;;;;;10203537;28;20072;-64
2021/01/26 17:35:53;;;;;;;64.97;42.85;;;;;;;;;;10206988;28;20084;-64
2021/01/26 17:40:50;;;;;;;166.07;103.13;;;;;;;;;;10191718;28;20526;-64
2021/01/26 17:45:48;;;;;;;74.45;47.67;;;;;;;;;;10201701;28;20080;-63
2021/01/26 17:50:46;;;;;;;93.80;60.47;;;;;;;;;;10198940;28;20074;-63
2021/01/26 17:55:43;;;;;;;65.70;43.95;;;;;;;;;;10217388;28;20069;-64
2021/01/26 18:00:41;;;;;;;45.63;30.40;;;;;;;;;;10204370;28;20077;-64
2021/01/26 18:05:38;;;;;;;123.90;80.60;;;;;;;;;;10216206;28;20549;-64
2021/01/26 18:10:36;;;;;;;124.78;74.95;;;;;;;;;;10215119;28;20076;-64
2021/01/26 18:15:34;;;;;;;133.18;73.45;;;;;;;;;;10211275;28;20073;-63
2021/01/26 18:20:32;;;;;;;72.03;45.28;;;;;;;;;;10211470;28;20077;-66
2021/01/26 18:25:29;;;;;;;84.80;51.03;;;;;;;;;;10214914;28;20073;-63
2021/01/26 18:30:27;;;;;;;57.00;35.67;;;;;;;;;;10214250;28;20095;-64
2021/01/26 18:35:27;;;;;;;43.50;32.38;;;;;;;;;;10212813;28;20085;-64
2021/01/26 18:40:24;;;;;;;45.95;30.70;;;;;;;;;;10215564;28;20464;-63
2021/01/26 18:45:23;;;;;;;82.03;49.40;;;;;;;;;;10217942;28;20367;-64
2021/01/26 18:50:22;;;;;;;100.35;57.33;;;;;;;;;;10210903;28;20065;-64
2021/01/26 18:55:22;;;;;;;70.00;41.25;;;;;;;;;;10211428;28;20471;-64
2021/01/26 19:00:20;;;;;;;127.80;71.55;;;;;;;;;;10214960;28;20076;-63
2021/01/26 19:05:18;;;;;;;93.82;51.20;;;;;;;;;;10213247;28;20072;-62
2021/01/26 19:10:18;;;;;;;89.50;51.88;;;;;;;;;;10214217;28;20332;-63
2021/01/26 19:15:17;;;;;;;145.15;74.30;;;;;;;;;;10213353;28;20069;-64
2021/01/26 19:20:15;;;;;;;64.70;41.10;;;;;;;;;;10213509;28;20088;-63
2021/01/26 19:25:13;;;;;;;79.88;47.78;;;;;;;;;;10213956;28;20553;-64
2021/01/26 19:30:14;;;;;;;69.85;41.15;;;;;;;;;;10212039;28;20195;-64
2021/01/26 19:35:12;;;;;;;265.08;115.78;;;;;;;;;;10197875;28;20073;-64
2021/01/26 19:40:10;;;;;;;149.32;72.93;;;;;;;;;;10209187;28;20081;-64
2021/01/26 19:45:09;;;;;;;61.08;36.63;;;;;;;;;;10209845;28;20073;-63
2021/01/26 19:50:08;;;;;;;95.68;48.58;;;;;;;;;;10203712;28;20072;-64
2021/01/26 19:55:05;;;;;;;69.85;37.53;;;;;;;;;;10205386;28;20072;-64
2021/01/26 20:00:04;;;;;;;273.85;105.28;;;;;;;;;;10194803;28;20484;-64
2021/01/26 20:05:09;;;;;;;166.32;68.55;;;;;;;;;;10212843;28;20527;-65
2021/01/26 20:10:07;;;;;;;145.40;65.10;;;;;;;;;;10213511;28;20512;-64
2021/01/26 20:15:06;;;;;;;126.53;53.85;;;;;;;;;;10211788;28;20080;-63
2021/01/26 20:20:04;;;;;;;228.40;89.95;;;;;;;;;;10212574;28;20089;-64
2021/01/26 20:25:03;;;;;;;207.02;80.40;;;;;;;;;;10220193;28;20135;-64
2021/01/26 20:30:00;;;;;;;165.43;72.13;;;;;;;;;;10219704;28;20072;-64
2021/01/26 20:34:58;;;;;;;219.93;94.53;;;;;;;;;;10219552;28;20084;-63
2021/01/26 20:39:55;;;;;;;130.60;51.38;;;;;;;;;;10218748;28;20072;-63
2021/01/26 20:44:54;;;;;;;131.98;54.75;;;;;;;;;;10216077;28;20065;-63
2021/01/26 20:49:51;;;;;;;70.50;32.00;;;;;;;;;;10219169;28;20534;-64
2021/01/26 20:54:48;;;;;;;115.72;54.03;;;;;;;;;;10218579;28;20073;-64
2021/01/26 20:59:46;;;;;;;106.55;48.80;;;;;;;;;;10219190;28;20084;-64
2021/01/26 21:04:44;;;;;;;143.00;64.10;;;;;;;;;;10218096;28;20515;-64
2021/01/26 21:09:41;;;;;;;103.07;49.22;;;;;;;;;;10217751;28;20069;-64
2021/01/26 21:14:39;;;;;;;160.93;74.72;;;;;;;;;;10219240;28;20168;-64
2021/01/26 21:19:36;;;;;;;103.05;59.13;;;;;;;;;;10214163;28;20069;-64
2021/01/26 21:24:34;;;;;;;24.42;18.17;;;;;;;;;;10217736;28;20076;-62
2021/01/26 21:29:32;;;;;;;43.30;30.02;;;;;;;;;;10217464;28;20068;-63
2021/01/26 21:34:29;;;;;;;46.47;30.20;;;;;;;;;;10216750;28;20084;-64
2021/01/26 21:39:26;;;;;;;74.20;47.08;;;;;;;;;;10217135;28;20061;-65
2021/01/26 21:44:24;;;;;;;32.90;22.98;;;;;;;;;;10216170;28;20107;-63
2021/01/26 21:49:22;;;;;;;40.63;32.17;;;;;;;;;;10213918;28;20084;-64
2021/01/26 21:54:19;;;;;;;20.42;17.45;;;;;;;;;;10216848;28;20065;-63
2021/01/26 21:59:17;;;;;;;27.13;18.17;;;;;;;;;;10214704;28;20073;-63
2021/01/26 22:04:15;;;;;;;21.08;14.98;;;;;;;;;;10216697;28;20065;-63
2021/01/26 22:09:12;;;;;;;45.67;32.10;;;;;;;;;;10216233;28;20076;-63
2021/01/26 22:14:10;;;;;;;45.55;29.63;;;;;;;;;;10215137;28;20069;-63
2021/01/26 22:19:07;;;;;;;42.67;25.52;;;;;;;;;;10216340;28;20105;-63
2021/01/26 22:24:06;;;;;;;42.63;28.45;;;;;;;;;;10212376;28;20526;-63
2021/01/26 22:29:04;;;;;;;29.15;21.17;;;;;;;;;;10211119;28;20100;-63
2021/01/26 22:34:01;;;;;;;22.52;16.35;;;;;;;;;;10214936;28;20078;-63
2021/01/26 22:38:58;;;;;;;37.33;24.13;;;;;;;;;;10214739;28;20073;-63
2021/01/26 22:43:57;;;;;;;35.55;19.00;;;;;;;;;;10213925;28;20070;-64
2021/01/26 22:48:54;;;;;;;35.10;20.42;;;;;;;;;;10215399;28;20518;-64
2021/01/26 22:53:51;;;;;;;39.83;21.10;;;;;;;;;;10212789;28;20069;-64
2021/01/26 22:58:49;;;;;;;35.83;26.08;;;;;;;;;;10210984;28;20076;-64
2021/01/26 23:03:47;;;;;;;39.28;22.05;;;;;;;;;;10210832;28;20544;-64
2021/01/26 23:08:46;;;;;;;20.35;13.20;;;;;;;;;;10210632;28;20084;-64
2021/01/26 23:13:44;;;;;;;13.07;10.55;;;;;;;;;;10212452;28;20110;-63
2021/01/26 23:18:41;;;;;;;15.65;11.45;;;;;;;;;;10211518;28;20060;-63
2021/01/26 23:23:40;;;;;;;19.48;12.98;;;;;;;;;;10213523;28;20077;-63
2021/01/26 23:28:37;;;;;;;26.67;15.25;;;;;;;;;;10214175;28;20598;-64
2021/01/26 23:33:34;;;;;;;16.38;12.45;;;;;;;;;;10211707;28;20077;-64
2021/01/26 23:38:34;;;;;;;12.10;9.70;;;;;;;;;;10208940;28;20530;-64
2021/01/26 23:43:32;;;;;;;13.32;10.52;;;;;;;;;;10213627;28;20065;-64
2021/01/26 23:48:29;;;;;;;18.58;11.80;;;;;;;;;;10211559;28;20080;-64
2021/01/26 23:53:27;;;;;;;17.20;12.80;;;;;;;;;;10213002;28;20070;-63
2021/01/26 23:58:25;;;;;;;12.55;9.63;;;;;;;;;;10219512;28;20529;-64
